sensor_id;sensor_type;location;lat;lon;timestamp;P1;durP1;ratioP1;P2;durP2;ratioP2
17886;SDS011;9069;52.044;7.472;2024-02-14T00:01:00;9.18;;;3.00;;
17886;SDS011;9069;52.044;7.472;2024-02-14T00:03:34;5.90;;;2.58;;
17886;SDS011;9069;52.044;7.472;2024-02-14T00:06:01;5.80;;;2.67;;
17886;SDS011;9069;52.044;7.472;2024-02-14T00:08:31;3.30;;;2.13;;
17886;SDS011;9069;52.044;7.472;2024-02-14T00:10:58;5.40;;;2.75;;
17886;SDS011;9069;52.044;7.472;2024-02-14T00:13:25;4.45;;;2.50;;
17886;SDS011;9069;52.044;7.472;2024-02-14T00:15:52;4.63;;;2.70;;
17886;SDS011;9069;52.044;7.472;2024-02-14T00:18:19;5.57;;;2.60;;
17886;SDS011;9069;52.044;7.472;2024-02-14T00:20:49;6.13;;;2.47;;
17886;SDS011;9069;52.044;7.472;2024-02-14T00:23:16;3.92;;;2.90;;
17886;SDS011;9069;52.044;7.472;2024-02-14T00:25:43;4.55;;;3.03;;
17886;SDS011;9069;52.044;7.472;2024-02-14T00:28:09;5.60;;;3.00;;
17886;SDS011;9069;52.044;7.472;2024-02-14T00:30:36;7.28;;;3.10;;
17886;SDS011;9069;52.044;7.472;2024-02-14T00:33:03;7.50;;;3.10;;
17886;SDS011;9069;52.044;7.472;2024-02-14T00:35:30;6.80;;;2.95;;
17886;SDS011;9069;52.044;7.472;2024-02-14T00:37:57;6.32;;;3.20;;
17886;SDS011;9069;52.044;7.472;2024-02-14T00:40:24;3.28;;;2.80;;
17886;SDS011;9069;52.044;7.472;2024-02-14T00:42:51;7.18;;;2.70;;
17886;SDS011;9069;52.044;7.472;2024-02-14T00:45:18;6.25;;;3.00;;
17886;SDS011;9069;52.044;7.472;2024-02-14T00:47:45;5.38;;;3.03;;
17886;SDS011;9069;52.044;7.472;2024-02-14T00:50:12;6.03;;;3.38;;
17886;SDS011;9069;52.044;7.472;2024-02-14T00:52:40;8.75;;;3.60;;
17886;SDS011;9069;52.044;7.472;2024-02-14T00:55:07;7.13;;;3.50;;
17886;SDS011;9069;52.044;7.472;2024-02-14T00:57:34;4.18;;;2.95;;
17886;SDS011;9069;52.044;7.472;2024-02-14T01:00:01;6.35;;;3.50;;
17886;SDS011;9069;52.044;7.472;2024-02-14T01:02:30;5.05;;;3.00;;
17886;SDS011;9069;52.044;7.472;2024-02-14T01:04:57;6.15;;;3.30;;
17886;SDS011;9069;52.044;7.472;2024-02-14T01:07:24;5.35;;;3.40;;
17886;SDS011;9069;52.044;7.472;2024-02-14T01:09:51;4.53;;;2.65;;
17886;SDS011;9069;52.044;7.472;2024-02-14T01:12:18;5.60;;;2.60;;
17886;SDS011;9069;52.044;7.472;2024-02-14T01:14:44;6.72;;;3.40;;
17886;SDS011;9069;52.044;7.472;2024-02-14T01:17:11;8.07;;;3.20;;
17886;SDS011;9069;52.044;7.472;2024-02-14T01:19:38;5.47;;;2.92;;
17886;SDS011;9069;52.044;7.472;2024-02-14T01:22:05;7.63;;;2.95;;
17886;SDS011;9069;52.044;7.472;2024-02-14T01:24:32;4.40;;;3.00;;
17886;SDS011;9069;52.044;7.472;2024-02-14T01:26:59;6.63;;;3.17;;
17886;SDS011;9069;52.044;7.472;2024-02-14T01:29:27;4.70;;;2.83;;
17886;SDS011;9069;52.044;7.472;2024-02-14T01:31:54;5.90;;;3.15;;
17886;SDS011;9069;52.044;7.472;2024-02-14T01:34:21;3.38;;;2.80;;
17886;SDS011;9069;52.044;7.472;2024-02-14T01:36:49;5.57;;;2.90;;
17886;SDS011;9069;52.044;7.472;2024-02-14T01:39:15;6.40;;;2.90;;
17886;SDS011;9069;52.044;7.472;2024-02-14T01:41:44;4.03;;;2.78;;
17886;SDS011;9069;52.044;7.472;2024-02-14T01:44:15;8.45;;;3.20;;
17886;SDS011;9069;52.044;7.472;2024-02-14T01:46:43;5.38;;;3.00;;
17886;SDS011;9069;52.044;7.472;2024-02-14T01:49:10;5.63;;;3.22;;
17886;SDS011;9069;52.044;7.472;2024-02-14T01:51:42;4.20;;;3.05;;
17886;SDS011;9069;52.044;7.472;2024-02-14T01:54:11;3.05;;;2.67;;
17886;SDS011;9069;52.044;7.472;2024-02-14T01:56:40;6.45;;;2.88;;
17886;SDS011;9069;52.044;7.472;2024-02-14T01:59:07;5.43;;;3.40;;
17886;SDS011;9069;52.044;7.472;2024-02-14T02:01:36;5.30;;;2.70;;
17886;SDS011;9069;52.044;7.472;2024-02-14T02:04:03;4.65;;;2.78;;
17886;SDS011;9069;52.044;7.472;2024-02-14T02:06:31;5.18;;;3.30;;
17886;SDS011;9069;52.044;7.472;2024-02-14T02:08:59;6.05;;;2.80;;
17886;SDS011;9069;52.044;7.472;2024-02-14T02:11:27;5.90;;;2.90;;
17886;SDS011;9069;52.044;7.472;2024-02-14T02:13:53;5.97;;;3.35;;
17886;SDS011;9069;52.044;7.472;2024-02-14T02:16:21;6.03;;;3.20;;
17886;SDS011;9069;52.044;7.472;2024-02-14T02:18:48;5.53;;;2.92;;
17886;SDS011;9069;52.044;7.472;2024-02-14T02:21:16;5.95;;;2.80;;
17886;SDS011;9069;52.044;7.472;2024-02-14T02:23:46;6.15;;;3.35;;
17886;SDS011;9069;52.044;7.472;2024-02-14T02:26:13;5.50;;;3.40;;
17886;SDS011;9069;52.044;7.472;2024-02-14T02:28:41;8.48;;;3.30;;
17886;SDS011;9069;52.044;7.472;2024-02-14T02:31:09;4.28;;;2.72;;
17886;SDS011;9069;52.044;7.472;2024-02-14T02:33:35;3.40;;;2.92;;
17886;SDS011;9069;52.044;7.472;2024-02-14T02:36:03;5.35;;;3.60;;
17886;SDS011;9069;52.044;7.472;2024-02-14T02:38:31;5.55;;;3.58;;
17886;SDS011;9069;52.044;7.472;2024-02-14T02:40:57;5.10;;;3.45;;
17886;SDS011;9069;52.044;7.472;2024-02-14T02:43:24;5.03;;;3.60;;
17886;SDS011;9069;52.044;7.472;2024-02-14T02:45:51;5.65;;;4.30;;
17886;SDS011;9069;52.044;7.472;2024-02-14T02:48:18;5.97;;;3.92;;
17886;SDS011;9069;52.044;7.472;2024-02-14T02:50:49;5.10;;;3.90;;
17886;SDS011;9069;52.044;7.472;2024-02-14T02:53:17;7.60;;;4.40;;
17886;SDS011;9069;52.044;7.472;2024-02-14T02:55:44;5.57;;;4.63;;
17886;SDS011;9069;52.044;7.472;2024-02-14T02:58:11;8.52;;;5.00;;
17886;SDS011;9069;52.044;7.472;2024-02-14T03:00:38;6.88;;;5.13;;
17886;SDS011;9069;52.044;7.472;2024-02-14T03:03:07;6.72;;;5.22;;
17886;SDS011;9069;52.044;7.472;2024-02-14T03:05:35;8.07;;;5.60;;
17886;SDS011;9069;52.044;7.472;2024-02-14T03:08:02;7.78;;;5.68;;
17886;SDS011;9069;52.044;7.472;2024-02-14T03:10:29;8.00;;;5.60;;
17886;SDS011;9069;52.044;7.472;2024-02-14T03:12:57;7.63;;;5.90;;
17886;SDS011;9069;52.044;7.472;2024-02-14T03:15:23;8.77;;;6.20;;
17886;SDS011;9069;52.044;7.472;2024-02-14T03:17:52;7.80;;;5.97;;
17886;SDS011;9069;52.044;7.472;2024-02-14T03:20:19;10.32;;;5.35;;
17886;SDS011;9069;52.044;7.472;2024-02-14T03:22:46;8.48;;;4.97;;
17886;SDS011;9069;52.044;7.472;2024-02-14T03:25:18;10.75;;;4.50;;
17886;SDS011;9069;52.044;7.472;2024-02-14T03:27:46;6.18;;;4.13;;
17886;SDS011;9069;52.044;7.472;2024-02-14T03:30:15;7.22;;;4.00;;
17886;SDS011;9069;52.044;7.472;2024-02-14T03:32:43;5.15;;;4.20;;
17886;SDS011;9069;52.044;7.472;2024-02-14T03:35:14;5.85;;;4.25;;
17886;SDS011;9069;52.044;7.472;2024-02-14T03:37:41;4.93;;;3.80;;
17886;SDS011;9069;52.044;7.472;2024-02-14T03:40:10;6.85;;;4.70;;
17886;SDS011;9069;52.044;7.472;2024-02-14T03:42:37;8.90;;;4.03;;
17886;SDS011;9069;52.044;7.472;2024-02-14T03:45:06;6.95;;;4.78;;
17886;SDS011;9069;52.044;7.472;2024-02-14T03:47:34;8.15;;;5.35;;
17886;SDS011;9069;52.044;7.472;2024-02-14T03:50:02;9.25;;;5.07;;
17886;SDS011;9069;52.044;7.472;2024-02-14T03:52:30;7.90;;;4.50;;
17886;SDS011;9069;52.044;7.472;2024-02-14T03:55:02;8.35;;;5.53;;
17886;SDS011;9069;52.044;7.472;2024-02-14T03:57:29;7.80;;;5.10;;
17886;SDS011;9069;52.044;7.472;2024-02-14T03:59:57;7.47;;;5.32;;
17886;SDS011;9069;52.044;7.472;2024-02-14T04:02:36;6.65;;;5.55;;
17886;SDS011;9069;52.044;7.472;2024-02-14T04:05:06;8.60;;;5.22;;
17886;SDS011;9069;52.044;7.472;2024-02-14T04:07:33;6.88;;;5.22;;
17886;SDS011;9069;52.044;7.472;2024-02-14T04:10:00;7.68;;;6.18;;
17886;SDS011;9069;52.044;7.472;2024-02-14T04:12:27;7.53;;;5.43;;
17886;SDS011;9069;52.044;7.472;2024-02-14T04:14:55;11.15;;;5.93;;
17886;SDS011;9069;52.044;7.472;2024-02-14T04:17:21;6.10;;;4.60;;
17886;SDS011;9069;52.044;7.472;2024-02-14T04:19:50;8.35;;;5.30;;
17886;SDS011;9069;52.044;7.472;2024-02-14T04:22:17;5.35;;;4.28;;
17886;SDS011;9069;52.044;7.472;2024-02-14T04:24:44;6.65;;;4.72;;
17886;SDS011;9069;52.044;7.472;2024-02-14T04:27:10;6.47;;;5.07;;
17886;SDS011;9069;52.044;7.472;2024-02-14T04:29:37;7.10;;;5.00;;
17886;SDS011;9069;52.044;7.472;2024-02-14T04:32:04;7.03;;;4.57;;
17886;SDS011;9069;52.044;7.472;2024-02-14T04:34:31;6.25;;;5.07;;
17886;SDS011;9069;52.044;7.472;2024-02-14T04:36:58;7.88;;;4.40;;
17886;SDS011;9069;52.044;7.472;2024-02-14T04:39:25;6.13;;;4.85;;
17886;SDS011;9069;52.044;7.472;2024-02-14T04:41:51;5.88;;;4.45;;
17886;SDS011;9069;52.044;7.472;2024-02-14T04:44:28;4.65;;;4.03;;
17886;SDS011;9069;52.044;7.472;2024-02-14T04:46:56;5.03;;;3.72;;
17886;SDS011;9069;52.044;7.472;2024-02-14T04:49:26;4.82;;;3.75;;
17886;SDS011;9069;52.044;7.472;2024-02-14T04:51:57;4.38;;;3.75;;
17886;SDS011;9069;52.044;7.472;2024-02-14T04:54:24;5.00;;;3.67;;
17886;SDS011;9069;52.044;7.472;2024-02-14T04:56:54;5.50;;;3.80;;
17886;SDS011;9069;52.044;7.472;2024-02-14T04:59:26;6.90;;;4.15;;
17886;SDS011;9069;52.044;7.472;2024-02-14T05:01:53;5.05;;;4.13;;
17886;SDS011;9069;52.044;7.472;2024-02-14T05:04:20;5.72;;;4.28;;
17886;SDS011;9069;52.044;7.472;2024-02-14T05:06:47;5.22;;;3.75;;
17886;SDS011;9069;52.044;7.472;2024-02-14T05:09:16;6.05;;;4.10;;
17886;SDS011;9069;52.044;7.472;2024-02-14T05:11:43;5.57;;;4.28;;
17886;SDS011;9069;52.044;7.472;2024-02-14T05:14:10;5.95;;;4.50;;
17886;SDS011;9069;52.044;7.472;2024-02-14T05:16:37;5.47;;;4.45;;
17886;SDS011;9069;52.044;7.472;2024-02-14T05:19:03;6.07;;;4.88;;
17886;SDS011;9069;52.044;7.472;2024-02-14T05:21:31;5.55;;;4.72;;
17886;SDS011;9069;52.044;7.472;2024-02-14T05:23:57;5.20;;;4.30;;
17886;SDS011;9069;52.044;7.472;2024-02-14T05:26:24;4.30;;;3.70;;
17886;SDS011;9069;52.044;7.472;2024-02-14T05:28:51;4.40;;;4.00;;
17886;SDS011;9069;52.044;7.472;2024-02-14T05:31:18;8.32;;;4.25;;
17886;SDS011;9069;52.044;7.472;2024-02-14T05:33:44;4.45;;;3.95;;
17886;SDS011;9069;52.044;7.472;2024-02-14T05:36:11;4.25;;;3.85;;
17886;SDS011;9069;52.044;7.472;2024-02-14T05:38:38;4.22;;;3.75;;
17886;SDS011;9069;52.044;7.472;2024-02-14T05:41:05;4.97;;;3.53;;
17886;SDS011;9069;52.044;7.472;2024-02-14T05:43:34;3.63;;;3.33;;
17886;SDS011;9069;52.044;7.472;2024-02-14T05:46:05;3.75;;;3.42;;
17886;SDS011;9069;52.044;7.472;2024-02-14T05:48:33;4.50;;;4.05;;
17886;SDS011;9069;52.044;7.472;2024-02-14T05:51:05;4.93;;;3.78;;
17886;SDS011;9069;52.044;7.472;2024-02-14T05:53:33;3.78;;;3.28;;
17886;SDS011;9069;52.044;7.472;2024-02-14T05:55:59;3.28;;;2.65;;
17886;SDS011;9069;52.044;7.472;2024-02-14T05:58:29;6.90;;;3.40;;
17886;SDS011;9069;52.044;7.472;2024-02-14T06:00:56;4.40;;;2.72;;
17886;SDS011;9069;52.044;7.472;2024-02-14T06:03:23;4.18;;;2.72;;
17886;SDS011;9069;52.044;7.472;2024-02-14T06:05:50;4.05;;;3.05;;
17886;SDS011;9069;52.044;7.472;2024-02-14T06:08:17;4.25;;;3.08;;
17886;SDS011;9069;52.044;7.472;2024-02-14T06:10:44;6.82;;;3.10;;
17886;SDS011;9069;52.044;7.472;2024-02-14T06:13:10;3.30;;;2.83;;
17886;SDS011;9069;52.044;7.472;2024-02-14T06:15:37;4.28;;;2.78;;
17886;SDS011;9069;52.044;7.472;2024-02-14T06:18:04;4.70;;;3.20;;
17886;SDS011;9069;52.044;7.472;2024-02-14T06:20:31;5.60;;;3.38;;
17886;SDS011;9069;52.044;7.472;2024-02-14T06:22:58;6.43;;;4.50;;
17886;SDS011;9069;52.044;7.472;2024-02-14T06:25:31;5.72;;;3.28;;
17886;SDS011;9069;52.044;7.472;2024-02-14T06:27:58;6.93;;;4.85;;
17886;SDS011;9069;52.044;7.472;2024-02-14T06:30:27;4.88;;;2.85;;
17886;SDS011;9069;52.044;7.472;2024-02-14T06:32:58;4.72;;;3.28;;
17886;SDS011;9069;52.044;7.472;2024-02-14T06:35:29;4.63;;;3.08;;
17886;SDS011;9069;52.044;7.472;2024-02-14T06:37:56;4.95;;;3.17;;
17886;SDS011;9069;52.044;7.472;2024-02-14T06:40:30;6.20;;;3.38;;
17886;SDS011;9069;52.044;7.472;2024-02-14T06:42:57;5.47;;;3.47;;
17886;SDS011;9069;52.044;7.472;2024-02-14T06:45:26;5.10;;;3.53;;
17886;SDS011;9069;52.044;7.472;2024-02-14T06:47:57;5.80;;;3.50;;
17886;SDS011;9069;52.044;7.472;2024-02-14T06:50:23;5.38;;;3.13;;
17886;SDS011;9069;52.044;7.472;2024-02-14T06:52:52;7.82;;;3.40;;
17886;SDS011;9069;52.044;7.472;2024-02-14T06:55:19;4.18;;;3.17;;
17886;SDS011;9069;52.044;7.472;2024-02-14T06:57:45;3.53;;;3.08;;
17886;SDS011;9069;52.044;7.472;2024-02-14T07:00:12;4.80;;;3.17;;
17886;SDS011;9069;52.044;7.472;2024-02-14T07:02:40;8.52;;;3.42;;
17886;SDS011;9069;52.044;7.472;2024-02-14T07:05:06;6.63;;;3.35;;
17886;SDS011;9069;52.044;7.472;2024-02-14T07:07:35;4.45;;;3.17;;
17886;SDS011;9069;52.044;7.472;2024-02-14T07:10:02;4.03;;;3.35;;
17886;SDS011;9069;52.044;7.472;2024-02-14T07:12:32;4.88;;;3.13;;
17886;SDS011;9069;52.044;7.472;2024-02-14T07:14:58;4.75;;;3.30;;
17886;SDS011;9069;52.044;7.472;2024-02-14T07:17:26;3.88;;;3.08;;
17886;SDS011;9069;52.044;7.472;2024-02-14T07:19:53;3.20;;;2.65;;
17886;SDS011;9069;52.044;7.472;2024-02-14T07:22:20;3.55;;;3.03;;
17886;SDS011;9069;52.044;7.472;2024-02-14T07:24:46;3.88;;;3.22;;
17886;SDS011;9069;52.044;7.472;2024-02-14T07:27:14;5.78;;;3.58;;
17886;SDS011;9069;52.044;7.472;2024-02-14T07:29:43;4.30;;;2.95;;
17886;SDS011;9069;52.044;7.472;2024-02-14T07:32:11;3.70;;;3.28;;
17886;SDS011;9069;52.044;7.472;2024-02-14T07:34:39;3.83;;;2.97;;
17886;SDS011;9069;52.044;7.472;2024-02-14T07:37:07;3.15;;;2.70;;
17886;SDS011;9069;52.044;7.472;2024-02-14T07:39:34;3.30;;;3.00;;
17886;SDS011;9069;52.044;7.472;2024-02-14T07:42:04;4.05;;;3.00;;
17886;SDS011;9069;52.044;7.472;2024-02-14T07:44:32;3.15;;;2.75;;
17886;SDS011;9069;52.044;7.472;2024-02-14T07:46:59;5.22;;;3.50;;
17886;SDS011;9069;52.044;7.472;2024-02-14T07:49:29;5.65;;;3.28;;
17886;SDS011;9069;52.044;7.472;2024-02-14T07:51:57;3.28;;;2.97;;
17886;SDS011;9069;52.044;7.472;2024-02-14T07:54:23;5.07;;;3.63;;
17886;SDS011;9069;52.044;7.472;2024-02-14T07:56:50;4.43;;;3.55;;
17886;SDS011;9069;52.044;7.472;2024-02-14T07:59:17;3.88;;;3.40;;
17886;SDS011;9069;52.044;7.472;2024-02-14T08:01:44;3.33;;;2.97;;
17886;SDS011;9069;52.044;7.472;2024-02-14T08:04:11;4.05;;;3.33;;
17886;SDS011;9069;52.044;7.472;2024-02-14T08:06:37;4.25;;;3.25;;
17886;SDS011;9069;52.044;7.472;2024-02-14T08:09:04;5.20;;;2.83;;
17886;SDS011;9069;52.044;7.472;2024-02-14T08:11:36;3.95;;;2.95;;
17886;SDS011;9069;52.044;7.472;2024-02-14T08:14:03;6.40;;;2.90;;
17886;SDS011;9069;52.044;7.472;2024-02-14T08:16:29;3.08;;;2.70;;
17886;SDS011;9069;52.044;7.472;2024-02-14T08:18:56;3.35;;;2.67;;
17886;SDS011;9069;52.044;7.472;2024-02-14T08:21:27;2.65;;;2.45;;
17886;SDS011;9069;52.044;7.472;2024-02-14T08:23:57;2.95;;;2.33;;
17886;SDS011;9069;52.044;7.472;2024-02-14T08:26:26;3.13;;;2.47;;
17886;SDS011;9069;52.044;7.472;2024-02-14T08:28:54;3.00;;;2.30;;
17886;SDS011;9069;52.044;7.472;2024-02-14T08:31:20;2.97;;;2.40;;
17886;SDS011;9069;52.044;7.472;2024-02-14T08:33:47;2.63;;;2.42;;
17886;SDS011;9069;52.044;7.472;2024-02-14T08:36:15;2.22;;;2.03;;
17886;SDS011;9069;52.044;7.472;2024-02-14T08:38:43;2.60;;;2.40;;
17886;SDS011;9069;52.044;7.472;2024-02-14T08:41:10;2.80;;;2.17;;
17886;SDS011;9069;52.044;7.472;2024-02-14T08:43:38;2.70;;;2.17;;
17886;SDS011;9069;52.044;7.472;2024-02-14T08:46:11;7.07;;;4.00;;
17886;SDS011;9069;52.044;7.472;2024-02-14T08:48:38;4.10;;;3.30;;
17886;SDS011;9069;52.044;7.472;2024-02-14T08:51:13;4.30;;;2.80;;
17886;SDS011;9069;52.044;7.472;2024-02-14T08:53:41;3.08;;;2.40;;
17886;SDS011;9069;52.044;7.472;2024-02-14T08:56:10;3.17;;;2.38;;
17886;SDS011;9069;52.044;7.472;2024-02-14T08:58:37;2.70;;;2.30;;
17886;SDS011;9069;52.044;7.472;2024-02-14T09:01:04;4.20;;;2.75;;
17886;SDS011;9069;52.044;7.472;2024-02-14T09:03:40;2.70;;;2.45;;
17886;SDS011;9069;52.044;7.472;2024-02-14T09:06:15;3.95;;;2.50;;
17886;SDS011;9069;52.044;7.472;2024-02-14T09:08:44;4.22;;;3.00;;
17886;SDS011;9069;52.044;7.472;2024-02-14T09:11:11;2.65;;;2.45;;
17886;SDS011;9069;52.044;7.472;2024-02-14T09:13:38;6.07;;;3.20;;
17886;SDS011;9069;52.044;7.472;2024-02-14T09:16:08;5.03;;;3.38;;
17886;SDS011;9069;52.044;7.472;2024-02-14T09:18:37;7.88;;;3.50;;
17886;SDS011;9069;52.044;7.472;2024-02-14T09:21:05;4.35;;;3.50;;
17886;SDS011;9069;52.044;7.472;2024-02-14T09:23:32;6.70;;;3.70;;
17886;SDS011;9069;52.044;7.472;2024-02-14T09:26:05;4.15;;;3.45;;
17886;SDS011;9069;52.044;7.472;2024-02-14T09:28:33;5.38;;;3.30;;
17886;SDS011;9069;52.044;7.472;2024-02-14T09:31:04;6.40;;;3.67;;
17886;SDS011;9069;52.044;7.472;2024-02-14T09:33:31;5.22;;;3.65;;
17886;SDS011;9069;52.044;7.472;2024-02-14T09:35:58;8.50;;;4.53;;
17886;SDS011;9069;52.044;7.472;2024-02-14T09:38:25;6.05;;;4.38;;
17886;SDS011;9069;52.044;7.472;2024-02-14T09:40:53;8.98;;;4.05;;
17886;SDS011;9069;52.044;7.472;2024-02-14T09:46:01;6.82;;;4.38;;
17886;SDS011;9069;52.044;7.472;2024-02-14T09:48:30;8.90;;;4.85;;
17886;SDS011;9069;52.044;7.472;2024-02-14T09:50:58;7.53;;;4.60;;
17886;SDS011;9069;52.044;7.472;2024-02-14T09:53:50;6.53;;;4.35;;
17886;SDS011;9069;52.044;7.472;2024-02-14T09:56:20;6.97;;;4.22;;
17886;SDS011;9069;52.044;7.472;2024-02-14T09:58:51;4.85;;;4.35;;
17886;SDS011;9069;52.044;7.472;2024-02-14T10:01:24;4.85;;;3.95;;
17886;SDS011;9069;52.044;7.472;2024-02-14T10:03:52;5.70;;;4.07;;
17886;SDS011;9069;52.044;7.472;2024-02-14T10:06:22;7.10;;;3.60;;
17886;SDS011;9069;52.044;7.472;2024-02-14T10:08:50;5.90;;;4.18;;
17886;SDS011;9069;52.044;7.472;2024-02-14T10:11:29;4.20;;;3.28;;
17886;SDS011;9069;52.044;7.472;2024-02-14T10:14:00;4.72;;;3.70;;
17886;SDS011;9069;52.044;7.472;2024-02-14T10:16:31;4.28;;;2.90;;
17886;SDS011;9069;52.044;7.472;2024-02-14T10:18:59;3.88;;;3.25;;
17886;SDS011;9069;52.044;7.472;2024-02-14T10:21:27;4.45;;;3.25;;
17886;SDS011;9069;52.044;7.472;2024-02-14T10:23:58;4.47;;;3.20;;
17886;SDS011;9069;52.044;7.472;2024-02-14T10:26:28;3.42;;;3.03;;
17886;SDS011;9069;52.044;7.472;2024-02-14T10:28:56;3.55;;;3.05;;
17886;SDS011;9069;52.044;7.472;2024-02-14T10:31:24;4.25;;;2.42;;
17886;SDS011;9069;52.044;7.472;2024-02-14T10:33:55;7.10;;;2.47;;
17886;SDS011;9069;52.044;7.472;2024-02-14T10:36:26;3.13;;;2.30;;
17886;SDS011;9069;52.044;7.472;2024-02-14T10:38:54;2.88;;;2.55;;
17886;SDS011;9069;52.044;7.472;2024-02-14T10:41:24;6.10;;;2.88;;
17886;SDS011;9069;52.044;7.472;2024-02-14T10:43:52;3.83;;;2.80;;
17886;SDS011;9069;52.044;7.472;2024-02-14T10:46:19;4.15;;;2.60;;
17886;SDS011;9069;52.044;7.472;2024-02-14T10:48:56;5.38;;;2.97;;
17886;SDS011;9069;52.044;7.472;2024-02-14T10:51:32;5.55;;;3.95;;
17886;SDS011;9069;52.044;7.472;2024-02-14T10:54:04;7.32;;;3.78;;
17886;SDS011;9069;52.044;7.472;2024-02-14T10:56:38;4.22;;;3.40;;
17886;SDS011;9069;52.044;7.472;2024-02-14T10:59:08;4.45;;;2.50;;
17886;SDS011;9069;52.044;7.472;2024-02-14T11:01:37;3.95;;;2.60;;
17886;SDS011;9069;52.044;7.472;2024-02-14T11:04:05;5.10;;;2.85;;
17886;SDS011;9069;52.044;7.472;2024-02-14T11:06:33;5.05;;;2.40;;
17886;SDS011;9069;52.044;7.472;2024-02-14T11:09:13;3.47;;;2.33;;
17886;SDS011;9069;52.044;7.472;2024-02-14T11:11:42;4.22;;;2.78;;
17886;SDS011;9069;52.044;7.472;2024-02-14T11:14:10;4.28;;;2.40;;
17886;SDS011;9069;52.044;7.472;2024-02-14T11:16:44;3.05;;;2.50;;
17886;SDS011;9069;52.044;7.472;2024-02-14T11:19:12;2.85;;;2.40;;
17886;SDS011;9069;52.044;7.472;2024-02-14T11:21:41;3.25;;;2.20;;
17886;SDS011;9069;52.044;7.472;2024-02-14T11:24:13;2.97;;;2.20;;
17886;SDS011;9069;52.044;7.472;2024-02-14T11:29:16;2.30;;;2.00;;
17886;SDS011;9069;52.044;7.472;2024-02-14T11:31:48;2.45;;;1.98;;
17886;SDS011;9069;52.044;7.472;2024-02-14T11:34:16;5.47;;;2.35;;
17886;SDS011;9069;52.044;7.472;2024-02-14T11:36:44;3.75;;;2.38;;
17886;SDS011;9069;52.044;7.472;2024-02-14T11:39:11;3.50;;;2.85;;
17886;SDS011;9069;52.044;7.472;2024-02-14T11:41:38;4.57;;;3.03;;
17886;SDS011;9069;52.044;7.472;2024-02-14T11:44:08;3.78;;;2.75;;
17886;SDS011;9069;52.044;7.472;2024-02-14T11:46:36;4.30;;;3.08;;
17886;SDS011;9069;52.044;7.472;2024-02-14T11:49:04;6.25;;;3.60;;
17886;SDS011;9069;52.044;7.472;2024-02-14T11:51:35;6.45;;;2.92;;
17886;SDS011;9069;52.044;7.472;2024-02-14T11:54:02;6.72;;;3.00;;
17886;SDS011;9069;52.044;7.472;2024-02-14T11:56:34;4.20;;;3.20;;
17886;SDS011;9069;52.044;7.472;2024-02-14T11:59:03;5.28;;;3.17;;
17886;SDS011;9069;52.044;7.472;2024-02-14T12:01:36;4.95;;;3.17;;
17886;SDS011;9069;52.044;7.472;2024-02-14T12:04:05;3.88;;;3.28;;
17886;SDS011;9069;52.044;7.472;2024-02-14T12:06:35;4.70;;;2.60;;
17886;SDS011;9069;52.044;7.472;2024-02-14T12:09:03;5.63;;;3.20;;
17886;SDS011;9069;52.044;7.472;2024-02-14T12:11:32;5.00;;;3.10;;
17886;SDS011;9069;52.044;7.472;2024-02-14T12:14:03;5.72;;;2.90;;
17886;SDS011;9069;52.044;7.472;2024-02-14T12:16:33;4.03;;;2.78;;
17886;SDS011;9069;52.044;7.472;2024-02-14T12:19:03;3.20;;;2.42;;
17886;SDS011;9069;52.044;7.472;2024-02-14T12:21:34;12.80;;;4.15;;
17886;SDS011;9069;52.044;7.472;2024-02-14T12:24:04;8.13;;;2.55;;
17886;SDS011;9069;52.044;7.472;2024-02-14T12:26:37;2.85;;;2.35;;
17886;SDS011;9069;52.044;7.472;2024-02-14T12:29:05;5.35;;;2.38;;
17886;SDS011;9069;52.044;7.472;2024-02-14T12:31:33;4.43;;;2.60;;
17886;SDS011;9069;52.044;7.472;2024-02-14T12:34:01;5.47;;;2.78;;
17886;SDS011;9069;52.044;7.472;2024-02-14T12:36:31;4.07;;;2.78;;
17886;SDS011;9069;52.044;7.472;2024-02-14T12:38:59;3.95;;;2.80;;
17886;SDS011;9069;52.044;7.472;2024-02-14T12:41:30;5.25;;;2.47;;
17886;SDS011;9069;52.044;7.472;2024-02-14T12:43:58;4.07;;;2.50;;
17886;SDS011;9069;52.044;7.472;2024-02-14T12:46:26;3.63;;;2.70;;
17886;SDS011;9069;52.044;7.472;2024-02-14T12:48:53;3.75;;;2.40;;
17886;SDS011;9069;52.044;7.472;2024-02-14T12:51:20;5.60;;;2.70;;
17886;SDS011;9069;52.044;7.472;2024-02-14T12:53:48;2.92;;;2.25;;
17886;SDS011;9069;52.044;7.472;2024-02-14T12:56:15;3.63;;;2.40;;
17886;SDS011;9069;52.044;7.472;2024-02-14T12:58:42;5.75;;;2.55;;
17886;SDS011;9069;52.044;7.472;2024-02-14T13:01:09;5.28;;;2.58;;
17886;SDS011;9069;52.044;7.472;2024-02-14T13:03:37;2.80;;;2.50;;
17886;SDS011;9069;52.044;7.472;2024-02-14T13:06:04;4.97;;;3.33;;
17886;SDS011;9069;52.044;7.472;2024-02-14T13:08:31;4.68;;;2.92;;
17886;SDS011;9069;52.044;7.472;2024-02-14T13:10:58;4.90;;;3.28;;
17886;SDS011;9069;52.044;7.472;2024-02-14T13:13:25;3.30;;;2.53;;
17886;SDS011;9069;52.044;7.472;2024-02-14T13:15:52;5.40;;;3.03;;
17886;SDS011;9069;52.044;7.472;2024-02-14T13:18:19;4.30;;;2.70;;
17886;SDS011;9069;52.044;7.472;2024-02-14T13:20:46;7.05;;;3.40;;
17886;SDS011;9069;52.044;7.472;2024-02-14T13:23:13;8.60;;;3.50;;
17886;SDS011;9069;52.044;7.472;2024-02-14T13:25:41;4.45;;;3.50;;
17886;SDS011;9069;52.044;7.472;2024-02-14T13:28:08;5.47;;;2.92;;
17886;SDS011;9069;52.044;7.472;2024-02-14T13:30:35;4.85;;;2.63;;
17886;SDS011;9069;52.044;7.472;2024-02-14T13:33:04;5.50;;;2.42;;
17886;SDS011;9069;52.044;7.472;2024-02-14T13:35:31;4.13;;;2.33;;
17886;SDS011;9069;52.044;7.472;2024-02-14T13:38:04;3.60;;;2.20;;
17886;SDS011;9069;52.044;7.472;2024-02-14T13:40:32;4.07;;;2.47;;
17886;SDS011;9069;52.044;7.472;2024-02-14T13:42:59;3.13;;;2.22;;
17886;SDS011;9069;52.044;7.472;2024-02-14T13:45:30;4.45;;;2.40;;
17886;SDS011;9069;52.044;7.472;2024-02-14T13:48:08;3.15;;;1.67;;
17886;SDS011;9069;52.044;7.472;2024-02-14T13:50:39;1.98;;;1.73;;
17886;SDS011;9069;52.044;7.472;2024-02-14T13:53:06;2.28;;;1.90;;
17886;SDS011;9069;52.044;7.472;2024-02-14T13:55:33;1.48;;;1.33;;
17886;SDS011;9069;52.044;7.472;2024-02-14T13:58:00;1.92;;;1.50;;
17886;SDS011;9069;52.044;7.472;2024-02-14T14:00:27;1.83;;;1.60;;
17886;SDS011;9069;52.044;7.472;2024-02-14T14:02:55;2.08;;;1.60;;
17886;SDS011;9069;52.044;7.472;2024-02-14T14:05:22;2.08;;;1.42;;
17886;SDS011;9069;52.044;7.472;2024-02-14T14:07:49;1.77;;;1.35;;
17886;SDS011;9069;52.044;7.472;2024-02-14T14:10:24;1.35;;;1.00;;
17886;SDS011;9069;52.044;7.472;2024-02-14T14:12:54;3.22;;;1.35;;
17886;SDS011;9069;52.044;7.472;2024-02-14T14:15:21;1.92;;;1.30;;
17886;SDS011;9069;52.044;7.472;2024-02-14T14:17:49;1.50;;;1.40;;
17886;SDS011;9069;52.044;7.472;2024-02-14T14:20:17;1.30;;;1.20;;
17886;SDS011;9069;52.044;7.472;2024-02-14T14:22:45;1.30;;;1.17;;
17886;SDS011;9069;52.044;7.472;2024-02-14T14:25:12;1.75;;;1.10;;
17886;SDS011;9069;52.044;7.472;2024-02-14T14:27:39;3.47;;;1.38;;
17886;SDS011;9069;52.044;7.472;2024-02-14T14:30:06;3.90;;;1.80;;
17886;SDS011;9069;52.044;7.472;2024-02-14T14:32:33;2.22;;;1.50;;
17886;SDS011;9069;52.044;7.472;2024-02-14T14:35:00;2.80;;;1.45;;
17886;SDS011;9069;52.044;7.472;2024-02-14T14:37:28;2.42;;;1.60;;
17886;SDS011;9069;52.044;7.472;2024-02-14T14:39:55;3.25;;;1.88;;
17886;SDS011;9069;52.044;7.472;2024-02-14T14:42:22;4.65;;;2.15;;
17886;SDS011;9069;52.044;7.472;2024-02-14T14:44:49;2.33;;;1.60;;
17886;SDS011;9069;52.044;7.472;2024-02-14T14:47:16;2.08;;;1.23;;
17886;SDS011;9069;52.044;7.472;2024-02-14T14:49:43;1.45;;;1.10;;
17886;SDS011;9069;52.044;7.472;2024-02-14T14:52:11;1.27;;;1.02;;
17886;SDS011;9069;52.044;7.472;2024-02-14T14:54:37;1.25;;;0.93;;
17886;SDS011;9069;52.044;7.472;2024-02-14T14:57:04;1.25;;;0.95;;
17886;SDS011;9069;52.044;7.472;2024-02-14T14:59:37;1.70;;;1.00;;
17886;SDS011;9069;52.044;7.472;2024-02-14T15:02:04;1.48;;;1.33;;
17886;SDS011;9069;52.044;7.472;2024-02-14T15:04:32;1.50;;;1.00;;
17886;SDS011;9069;52.044;7.472;2024-02-14T15:07:00;1.65;;;0.88;;
17886;SDS011;9069;52.044;7.472;2024-02-14T15:09:28;1.10;;;1.00;;
17886;SDS011;9069;52.044;7.472;2024-02-14T15:11:57;5.00;;;1.45;;